sensor_id;sensor_type;location;lat;lon;timestamp;temperature;humidity
84389;DHT22;74589;48.846;2.382;2024-01-27T00:02:21;11.30;1.00
84389;DHT22;74589;48.846;2.382;2024-01-27T00:04:47;11.10;1.00
84389;DHT22;74589;48.846;2.382;2024-01-27T00:07:14;11.00;1.00
84389;DHT22;74589;48.846;2.382;2024-01-27T00:09:39;11.10;1.00
84389;DHT22;74589;48.846;2.382;2024-01-27T00:12:06;11.10;1.00
84389;DHT22;74589;48.846;2.382;2024-01-27T00:14:32;11.00;1.00
84389;DHT22;74589;48.846;2.382;2024-01-27T00:16:58;11.00;1.00
84389;DHT22;74589;48.846;2.382;2024-01-27T00:19:23;10.80;1.00
84389;DHT22;74589;48.846;2.382;2024-01-27T00:21:49;10.90;1.00
84389;DHT22;74589;48.846;2.382;2024-01-27T00:24:14;10.90;1.00
84389;DHT22;74589;48.846;2.382;2024-01-27T00:26:41;10.90;1.00
84389;DHT22;74589;48.846;2.382;2024-01-27T00:29:07;11.10;1.00
84389;DHT22;74589;48.846;2.382;2024-01-27T00:31:32;10.90;1.00
84389;DHT22;74589;48.846;2.382;2024-01-27T00:33:58;11.00;1.00
84389;DHT22;74589;48.846;2.382;2024-01-27T00:36:23;11.00;1.00
84389;DHT22;74589;48.846;2.382;2024-01-27T00:38:49;11.00;1.00
84389;DHT22;74589;48.846;2.382;2024-01-27T00:41:18;10.90;1.00
84389;DHT22;74589;48.846;2.382;2024-01-27T00:43:44;10.80;1.00
84389;DHT22;74589;48.846;2.382;2024-01-27T00:46:10;10.80;1.00
84389;DHT22;74589;48.846;2.382;2024-01-27T00:48:35;10.60;1.00
84389;DHT22;74589;48.846;2.382;2024-01-27T00:51:01;10.50;1.00
84389;DHT22;74589;48.846;2.382;2024-01-27T00:53:26;10.30;1.00
84389;DHT22;74589;48.846;2.382;2024-01-27T00:55:52;10.20;1.00
84389;DHT22;74589;48.846;2.382;2024-01-27T00:58:18;10.10;1.00
84389;DHT22;74589;48.846;2.382;2024-01-27T01:00:43;10.10;1.00
84389;DHT22;74589;48.846;2.382;2024-01-27T01:03:09;10.10;1.00
84389;DHT22;74589;48.846;2.382;2024-01-27T01:05:34;10.10;1.00
84389;DHT22;74589;48.846;2.382;2024-01-27T01:08:00;10.20;1.00
84389;DHT22;74589;48.846;2.382;2024-01-27T01:10:25;10.10;1.00
84389;DHT22;74589;48.846;2.382;2024-01-27T01:12:52;10.00;1.00
84389;DHT22;74589;48.846;2.382;2024-01-27T01:15:17;9.90;1.10
84389;DHT22;74589;48.846;2.382;2024-01-27T01:17:43;10.00;1.00
84389;DHT22;74589;48.846;2.382;2024-01-27T01:20:09;9.90;1.50
84389;DHT22;74589;48.846;2.382;2024-01-27T01:22:35;9.90;1.30
84389;DHT22;74589;48.846;2.382;2024-01-27T01:25:00;10.00;1.40
84389;DHT22;74589;48.846;2.382;2024-01-27T01:27:26;9.90;2.10
84389;DHT22;74589;48.846;2.382;2024-01-27T01:29:52;9.80;2.20
84389;DHT22;74589;48.846;2.382;2024-01-27T01:32:17;9.80;2.50
84389;DHT22;74589;48.846;2.382;2024-01-27T01:34:43;9.80;2.30
84389;DHT22;74589;48.846;2.382;2024-01-27T01:37:08;10.00;2.20
84389;DHT22;74589;48.846;2.382;2024-01-27T01:39:34;9.90;2.50
84389;DHT22;74589;48.846;2.382;2024-01-27T01:42:00;9.90;2.70
84389;DHT22;74589;48.846;2.382;2024-01-27T01:44:29;9.80;2.50
84389;DHT22;74589;48.846;2.382;2024-01-27T01:46:56;9.90;2.70
84389;DHT22;74589;48.846;2.382;2024-01-27T01:49:22;9.90;2.60
84389;DHT22;74589;48.846;2.382;2024-01-27T01:51:48;10.00;2.30
84389;DHT22;74589;48.846;2.382;2024-01-27T01:54:13;10.00;2.00
84389;DHT22;74589;48.846;2.382;2024-01-27T01:56:39;10.00;2.20
84389;DHT22;74589;48.846;2.382;2024-01-27T01:59:05;10.10;2.10
84389;DHT22;74589;48.846;2.382;2024-01-27T02:01:31;10.10;2.00
84389;DHT22;74589;48.846;2.382;2024-01-27T02:03:57;9.90;2.60
84389;DHT22;74589;48.846;2.382;2024-01-27T02:06:23;9.80;3.20
84389;DHT22;74589;48.846;2.382;2024-01-27T02:08:50;9.70;3.70
84389;DHT22;74589;48.846;2.382;2024-01-27T02:11:15;9.70;3.60
84389;DHT22;74589;48.846;2.382;2024-01-27T02:13:41;9.70;3.50
84389;DHT22;74589;48.846;2.382;2024-01-27T02:16:07;9.60;3.40
84389;DHT22;74589;48.846;2.382;2024-01-27T02:18:33;9.70;3.50
84389;DHT22;74589;48.846;2.382;2024-01-27T02:20:58;9.70;3.50
84389;DHT22;74589;48.846;2.382;2024-01-27T02:23:24;9.60;3.30
84389;DHT22;74589;48.846;2.382;2024-01-27T02:25:50;9.60;3.60
84389;DHT22;74589;48.846;2.382;2024-01-27T02:28:16;9.60;3.10
84389;DHT22;74589;48.846;2.382;2024-01-27T02:30:42;9.60;2.90
84389;DHT22;74589;48.846;2.382;2024-01-27T02:33:07;9.60;2.70
84389;DHT22;74589;48.846;2.382;2024-01-27T02:35:33;9.40;3.20
84389;DHT22;74589;48.846;2.382;2024-01-27T02:37:59;9.40;3.20
84389;DHT22;74589;48.846;2.382;2024-01-27T02:40:24;9.50;3.00
84389;DHT22;74589;48.846;2.382;2024-01-27T02:42:50;9.50;2.90
84389;DHT22;74589;48.846;2.382;2024-01-27T02:45:15;9.50;2.70
84389;DHT22;74589;48.846;2.382;2024-01-27T02:47:41;9.50;2.80
84389;DHT22;74589;48.846;2.382;2024-01-27T02:50:07;9.40;3.20
84389;DHT22;74589;48.846;2.382;2024-01-27T02:52:33;9.30;3.80
84389;DHT22;74589;48.846;2.382;2024-01-27T02:54:58;9.20;5.00
84389;DHT22;74589;48.846;2.382;2024-01-27T02:57:24;9.00;4.80
84389;DHT22;74589;48.846;2.382;2024-01-27T02:59:50;9.00;4.90
84389;DHT22;74589;48.846;2.382;2024-01-27T03:02:16;9.00;5.10
84389;DHT22;74589;48.846;2.382;2024-01-27T03:04:41;9.10;5.00
84389;DHT22;74589;48.846;2.382;2024-01-27T03:07:07;9.20;4.70
84389;DHT22;74589;48.846;2.382;2024-01-27T03:09:33;9.00;5.20
84389;DHT22;74589;48.846;2.382;2024-01-27T03:11:59;9.00;5.50
84389;DHT22;74589;48.846;2.382;2024-01-27T03:14:24;9.00;5.30
84389;DHT22;74589;48.846;2.382;2024-01-27T03:16:51;9.10;5.20
84389;DHT22;74589;48.846;2.382;2024-01-27T03:19:16;9.20;4.80
84389;DHT22;74589;48.846;2.382;2024-01-27T03:21:42;9.10;5.10
84389;DHT22;74589;48.846;2.382;2024-01-27T03:24:07;9.10;5.20
84389;DHT22;74589;48.846;2.382;2024-01-27T03:26:33;8.90;5.70
84389;DHT22;74589;48.846;2.382;2024-01-27T03:28:59;8.90;5.50
84389;DHT22;74589;48.846;2.382;2024-01-27T03:31:32;8.80;5.70
84389;DHT22;74589;48.846;2.382;2024-01-27T03:34:01;8.80;6.40
84389;DHT22;74589;48.846;2.382;2024-01-27T03:36:27;8.90;5.90
84389;DHT22;74589;48.846;2.382;2024-01-27T03:38:53;9.00;5.30
84389;DHT22;74589;48.846;2.382;2024-01-27T03:41:19;9.00;5.20
84389;DHT22;74589;48.846;2.382;2024-01-27T03:43:45;9.00;5.00
84389;DHT22;74589;48.846;2.382;2024-01-27T03:46:11;8.90;5.20
84389;DHT22;74589;48.846;2.382;2024-01-27T03:48:36;8.90;5.30
84389;DHT22;74589;48.846;2.382;2024-01-27T03:51:02;8.90;5.10
84389;DHT22;74589;48.846;2.382;2024-01-27T03:53:28;9.10;4.60
84389;DHT22;74589;48.846;2.382;2024-01-27T03:55:54;9.10;4.50
84389;DHT22;74589;48.846;2.382;2024-01-27T03:58:20;9.00;4.50
84389;DHT22;74589;48.846;2.382;2024-01-27T04:00:45;8.80;5.10
84389;DHT22;74589;48.846;2.382;2024-01-27T04:03:11;8.80;5.70
84389;DHT22;74589;48.846;2.382;2024-01-27T04:05:39;8.70;5.80
84389;DHT22;74589;48.846;2.382;2024-01-27T04:08:05;8.70;5.60
84389;DHT22;74589;48.846;2.382;2024-01-27T04:10:31;8.60;5.90
84389;DHT22;74589;48.846;2.382;2024-01-27T04:12:57;8.50;6.50
84389;DHT22;74589;48.846;2.382;2024-01-27T04:15:23;8.70;6.10
84389;DHT22;74589;48.846;2.382;2024-01-27T04:17:48;8.80;5.80
84389;DHT22;74589;48.846;2.382;2024-01-27T04:20:14;8.60;5.90
84389;DHT22;74589;48.846;2.382;2024-01-27T04:22:40;8.70;5.90
84389;DHT22;74589;48.846;2.382;2024-01-27T04:25:06;8.70;5.50
84389;DHT22;74589;48.846;2.382;2024-01-27T04:27:32;8.60;5.80
84389;DHT22;74589;48.846;2.382;2024-01-27T04:30:01;8.50;6.10
84389;DHT22;74589;48.846;2.382;2024-01-27T04:32:27;8.50;6.40
84389;DHT22;74589;48.846;2.382;2024-01-27T04:34:52;8.40;6.30
84389;DHT22;74589;48.846;2.382;2024-01-27T04:37:18;8.50;6.50
84389;DHT22;74589;48.846;2.382;2024-01-27T04:39:44;8.60;6.20
84389;DHT22;74589;48.846;2.382;2024-01-27T04:42:09;8.60;6.10
84389;DHT22;74589;48.846;2.382;2024-01-27T04:44:35;8.50;6.00
84389;DHT22;74589;48.846;2.382;2024-01-27T04:47:01;8.50;6.10
84389;DHT22;74589;48.846;2.382;2024-01-27T04:49:26;8.50;5.90
84389;DHT22;74589;48.846;2.382;2024-01-27T04:51:52;8.40;6.00
84389;DHT22;74589;48.846;2.382;2024-01-27T04:54:18;8.60;5.70
84389;DHT22;74589;48.846;2.382;2024-01-27T04:56:43;8.70;5.40
84389;DHT22;74589;48.846;2.382;2024-01-27T04:59:09;8.80;4.90
84389;DHT22;74589;48.846;2.382;2024-01-27T05:01:35;8.80;4.80
84389;DHT22;74589;48.846;2.382;2024-01-27T05:04:00;8.60;5.20
84389;DHT22;74589;48.846;2.382;2024-01-27T05:06:26;8.40;5.80
84389;DHT22;74589;48.846;2.382;2024-01-27T05:08:51;8.20;6.30
84389;DHT22;74589;48.846;2.382;2024-01-27T05:11:29;8.30;6.40
84389;DHT22;74589;48.846;2.382;2024-01-27T05:13:56;8.20;6.90
84389;DHT22;74589;48.846;2.382;2024-01-27T05:16:22;8.10;6.80
84389;DHT22;74589;48.846;2.382;2024-01-27T05:18:47;8.10;6.90
84389;DHT22;74589;48.846;2.382;2024-01-27T05:21:14;8.10;7.10
84389;DHT22;74589;48.846;2.382;2024-01-27T05:23:39;8.20;6.50
84389;DHT22;74589;48.846;2.382;2024-01-27T05:26:08;8.10;6.80
84389;DHT22;74589;48.846;2.382;2024-01-27T05:28:35;8.10;6.90
84389;DHT22;74589;48.846;2.382;2024-01-27T05:31:01;8.00;7.30
84389;DHT22;74589;48.846;2.382;2024-01-27T05:33:27;8.10;6.90
84389;DHT22;74589;48.846;2.382;2024-01-27T05:35:52;8.00;7.00
84389;DHT22;74589;48.846;2.382;2024-01-27T05:38:18;7.90;7.20
84389;DHT22;74589;48.846;2.382;2024-01-27T05:40:43;8.00;7.30
84389;DHT22;74589;48.846;2.382;2024-01-27T05:43:10;7.90;7.20
84389;DHT22;74589;48.846;2.382;2024-01-27T05:45:36;7.90;7.70
84389;DHT22;74589;48.846;2.382;2024-01-27T05:48:02;8.00;6.80
84389;DHT22;74589;48.846;2.382;2024-01-27T05:50:28;8.00;7.30
84389;DHT22;74589;48.846;2.382;2024-01-27T05:52:56;7.90;7.20
84389;DHT22;74589;48.846;2.382;2024-01-27T05:55:21;7.70;7.90
84389;DHT22;74589;48.846;2.382;2024-01-27T05:57:47;7.60;8.20
84389;DHT22;74589;48.846;2.382;2024-01-27T06:00:13;7.70;8.40
84389;DHT22;74589;48.846;2.382;2024-01-27T06:02:39;7.80;7.90
84389;DHT22;74589;48.846;2.382;2024-01-27T06:05:05;7.70;8.30
84389;DHT22;74589;48.846;2.382;2024-01-27T06:07:30;7.70;8.40
84389;DHT22;74589;48.846;2.382;2024-01-27T06:09:56;7.80;8.30
84389;DHT22;74589;48.846;2.382;2024-01-27T06:12:21;7.90;8.10
84389;DHT22;74589;48.846;2.382;2024-01-27T06:14:47;7.80;7.90
84389;DHT22;74589;48.846;2.382;2024-01-27T06:17:13;8.00;7.70
84389;DHT22;74589;48.846;2.382;2024-01-27T06:19:40;7.90;7.90
84389;DHT22;74589;48.846;2.382;2024-01-27T06:22:06;8.20;6.90
84389;DHT22;74589;48.846;2.382;2024-01-27T06:24:31;8.00;7.20
84389;DHT22;74589;48.846;2.382;2024-01-27T06:26:57;7.90;7.40
84389;DHT22;74589;48.846;2.382;2024-01-27T06:29:23;8.00;7.40
84389;DHT22;74589;48.846;2.382;2024-01-27T06:31:48;7.80;7.70
84389;DHT22;74589;48.846;2.382;2024-01-27T06:34:14;7.80;8.00
84389;DHT22;74589;48.846;2.382;2024-01-27T06:36:40;7.90;7.60
84389;DHT22;74589;48.846;2.382;2024-01-27T06:39:06;7.90;7.60
84389;DHT22;74589;48.846;2.382;2024-01-27T06:41:33;7.70;8.20
84389;DHT22;74589;48.846;2.382;2024-01-27T06:43:58;7.80;8.00
84389;DHT22;74589;48.846;2.382;2024-01-27T06:46:24;7.80;7.80
84389;DHT22;74589;48.846;2.382;2024-01-27T06:48:50;7.90;7.70
84389;DHT22;74589;48.846;2.382;2024-01-27T06:51:16;7.90;7.80
84389;DHT22;74589;48.846;2.382;2024-01-27T06:53:42;7.90;7.30
84389;DHT22;74589;48.846;2.382;2024-01-27T06:56:07;7.80;7.90
84389;DHT22;74589;48.846;2.382;2024-01-27T06:58:33;7.70;7.60
84389;DHT22;74589;48.846;2.382;2024-01-27T07:01:00;7.70;7.80
84389;DHT22;74589;48.846;2.382;2024-01-27T07:03:26;7.60;8.10
84389;DHT22;74589;48.846;2.382;2024-01-27T07:05:51;7.50;8.50
84389;DHT22;74589;48.846;2.382;2024-01-27T07:08:17;7.50;8.70
84389;DHT22;74589;48.846;2.382;2024-01-27T07:10:43;7.50;8.20
84389;DHT22;74589;48.846;2.382;2024-01-27T07:13:08;7.50;8.50
84389;DHT22;74589;48.846;2.382;2024-01-27T07:15:34;7.50;8.50
84389;DHT22;74589;48.846;2.382;2024-01-27T07:18:02;7.50;8.50
84389;DHT22;74589;48.846;2.382;2024-01-27T07:20:27;7.60;8.40
84389;DHT22;74589;48.846;2.382;2024-01-27T07:22:54;7.80;7.50
84389;DHT22;74589;48.846;2.382;2024-01-27T07:25:20;7.90;7.60
84389;DHT22;74589;48.846;2.382;2024-01-27T07:27:45;7.90;7.10
84389;DHT22;74589;48.846;2.382;2024-01-27T07:30:12;8.20;5.70
84389;DHT22;74589;48.846;2.382;2024-01-27T07:32:37;8.20;5.60
84389;DHT22;74589;48.846;2.382;2024-01-27T07:35:03;8.00;5.90
84389;DHT22;74589;48.846;2.382;2024-01-27T07:37:31;7.90;6.60
84389;DHT22;74589;48.846;2.382;2024-01-27T07:39:57;7.80;6.70
84389;DHT22;74589;48.846;2.382;2024-01-27T07:42:22;7.80;7.20
84389;DHT22;74589;48.846;2.382;2024-01-27T07:44:48;7.80;7.10
84389;DHT22;74589;48.846;2.382;2024-01-27T07:47:14;7.80;6.80
84389;DHT22;74589;48.846;2.382;2024-01-27T07:49:40;7.80;6.70
84389;DHT22;74589;48.846;2.382;2024-01-27T07:52:06;7.70;6.80
84389;DHT22;74589;48.846;2.382;2024-01-27T07:54:31;7.70;7.20
84389;DHT22;74589;48.846;2.382;2024-01-27T07:56:58;7.70;6.90
84389;DHT22;74589;48.846;2.382;2024-01-27T07:59:24;7.60;6.70
84389;DHT22;74589;48.846;2.382;2024-01-27T08:01:50;7.70;6.80
84389;DHT22;74589;48.846;2.382;2024-01-27T08:04:15;7.50;7.20
84389;DHT22;74589;48.846;2.382;2024-01-27T08:06:49;7.60;6.70
84389;DHT22;74589;48.846;2.382;2024-01-27T08:09:15;7.50;6.60
84389;DHT22;74589;48.846;2.382;2024-01-27T08:11:42;7.50;6.90
84389;DHT22;74589;48.846;2.382;2024-01-27T08:14:07;7.50;6.40
84389;DHT22;74589;48.846;2.382;2024-01-27T08:16:33;7.60;6.60
84389;DHT22;74589;48.846;2.382;2024-01-27T08:18:59;7.60;5.90
84389;DHT22;74589;48.846;2.382;2024-01-27T08:21:24;7.60;6.50
84389;DHT22;74589;48.846;2.382;2024-01-27T08:23:50;7.50;6.80
84389;DHT22;74589;48.846;2.382;2024-01-27T08:26:15;7.60;6.90
84389;DHT22;74589;48.846;2.382;2024-01-27T08:28:41;7.60;6.60
84389;DHT22;74589;48.846;2.382;2024-01-27T08:31:07;7.60;6.50
84389;DHT22;74589;48.846;2.382;2024-01-27T08:33:32;7.60;6.60
84389;DHT22;74589;48.846;2.382;2024-01-27T08:35:59;7.80;6.60
84389;DHT22;74589;48.846;2.382;2024-01-27T08:38:25;7.70;6.40
84389;DHT22;74589;48.846;2.382;2024-01-27T08:40:50;8.10;5.70
84389;DHT22;74589;48.846;2.382;2024-01-27T08:43:16;8.40;4.40
84389;DHT22;74589;48.846;2.382;2024-01-27T08:45:42;8.50;3.60
84389;DHT22;74589;48.846;2.382;2024-01-27T08:48:07;8.30;4.90
84389;DHT22;74589;48.846;2.382;2024-01-27T08:50:33;8.10;5.30
84389;DHT22;74589;48.846;2.382;2024-01-27T08:52:59;8.20;5.50
84389;DHT22;74589;48.846;2.382;2024-01-27T08:55:25;8.20;5.50
84389;DHT22;74589;48.846;2.382;2024-01-27T08:57:51;8.20;5.00
84389;DHT22;74589;48.846;2.382;2024-01-27T09:00:17;8.20;4.80
84389;DHT22;74589;48.846;2.382;2024-01-27T09:02:43;8.30;5.10
84389;DHT22;74589;48.846;2.382;2024-01-27T09:05:09;8.50;4.20
84389;DHT22;74589;48.846;2.382;2024-01-27T09:07:35;8.70;3.60
84389;DHT22;74589;48.846;2.382;2024-01-27T09:10:01;8.70;3.90
84389;DHT22;74589;48.846;2.382;2024-01-27T09:12:27;8.80;3.90
84389;DHT22;74589;48.846;2.382;2024-01-27T09:14:52;8.80;3.50
84389;DHT22;74589;48.846;2.382;2024-01-27T09:17:20;9.00;3.30
84389;DHT22;74589;48.846;2.382;2024-01-27T09:19:45;8.90;3.40
84389;DHT22;74589;48.846;2.382;2024-01-27T09:22:11;8.80;3.80
84389;DHT22;74589;48.846;2.382;2024-01-27T09:24:36;8.80;4.10
84389;DHT22;74589;48.846;2.382;2024-01-27T09:27:02;9.00;3.60
84389;DHT22;74589;48.846;2.382;2024-01-27T09:29:29;9.00;3.30
84389;DHT22;74589;48.846;2.382;2024-01-27T09:31:55;9.00;3.60
84389;DHT22;74589;48.846;2.382;2024-01-27T09:34:20;9.10;3.30
84389;DHT22;74589;48.846;2.382;2024-01-27T09:36:46;9.10;3.20
84389;DHT22;74589;48.846;2.382;2024-01-27T09:39:12;9.10;3.60
84389;DHT22;74589;48.846;2.382;2024-01-27T09:41:38;9.40;2.60
84389;DHT22;74589;48.846;2.382;2024-01-27T09:44:04;9.60;2.00
84389;DHT22;74589;48.846;2.382;2024-01-27T09:46:31;9.70;1.40
84389;DHT22;74589;48.846;2.382;2024-01-27T09:48:57;9.60;1.80
84389;DHT22;74589;48.846;2.382;2024-01-27T09:51:25;9.70;1.90
84389;DHT22;74589;48.846;2.382;2024-01-27T09:53:51;9.70;2.60
84389;DHT22;74589;48.846;2.382;2024-01-27T09:56:17;9.80;1.20
84389;DHT22;74589;48.846;2.382;2024-01-27T09:58:44;9.90;1.20
84389;DHT22;74589;48.846;2.382;2024-01-27T10:01:11;10.30;1.00
84389;DHT22;74589;48.846;2.382;2024-01-27T10:03:40;10.30;1.00
84389;DHT22;74589;48.846;2.382;2024-01-27T10:06:10;10.40;1.00
84389;DHT22;74589;48.846;2.382;2024-01-27T10:08:36;10.80;1.00
84389;DHT22;74589;48.846;2.382;2024-01-27T10:11:09;10.90;1.00
84389;DHT22;74589;48.846;2.382;2024-01-27T10:13:36;10.70;1.00
84389;DHT22;74589;48.846;2.382;2024-01-27T10:16:03;10.50;1.00
84389;DHT22;74589;48.846;2.382;2024-01-27T10:18:29;10.70;1.00
84389;DHT22;74589;48.846;2.382;2024-01-27T10:20:56;10.50;1.00
84389;DHT22;74589;48.846;2.382;2024-01-27T10:23:21;11.00;1.00
84389;DHT22;74589;48.846;2.382;2024-01-27T10:25:47;10.90;1.00
84389;DHT22;74589;48.846;2.382;2024-01-27T10:28:13;11.00;1.00
84389;DHT22;74589;48.846;2.382;2024-01-27T10:30:38;10.70;1.00
84389;DHT22;74589;48.846;2.382;2024-01-27T10:33:04;10.70;1.00
84389;DHT22;74589;48.846;2.382;2024-01-27T10:35:32;10.70;1.00
84389;DHT22;74589;48.846;2.382;2024-01-27T10:37:58;11.10;1.00
84389;DHT22;74589;48.846;2.382;2024-01-27T10:40:24;11.00;1.00
84389;DHT22;74589;48.846;2.382;2024-01-27T10:43:04;11.20;1.00
84389;DHT22;74589;48.846;2.382;2024-01-27T10:45:37;11.30;1.00
84389;DHT22;74589;48.846;2.382;2024-01-27T10:48:04;11.40;1.00
84389;DHT22;74589;48.846;2.382;2024-01-27T10:50:38;11.40;1.00
84389;DHT22;74589;48.846;2.382;2024-01-27T10:53:24;11.50;1.00
84389;DHT22;74589;48.846;2.382;2024-01-27T10:55:57;11.70;1.00
84389;DHT22;74589;48.846;2.382;2024-01-27T10:58:23;11.80;1.00
84389;DHT22;74589;48.846;2.382;2024-01-27T11:00:50;12.00;1.00
84389;DHT22;74589;48.846;2.382;2024-01-27T11:03:19;12.00;1.00
84389;DHT22;74589;48.846;2.382;2024-01-27T11:05:46;12.10;1.00
84389;DHT22;74589;48.846;2.382;2024-01-27T11:08:12;12.30;1.00
84389;DHT22;74589;48.846;2.382;2024-01-27T11:10:39;12.50;1.00
84389;DHT22;74589;48.846;2.382;2024-01-27T11:13:06;12.30;1.00
84389;DHT22;74589;48.846;2.382;2024-01-27T11:15:33;12.00;1.00
84389;DHT22;74589;48.846;2.382;2024-01-27T11:17:59;12.00;1.00
84389;DHT22;74589;48.846;2.382;2024-01-27T11:20:25;12.00;1.00
84389;DHT22;74589;48.846;2.382;2024-01-27T11:22:51;12.10;1.00
84389;DHT22;74589;48.846;2.382;2024-01-27T11:25:18;12.20;1.00
84389;DHT22;74589;48.846;2.382;2024-01-27T11:27:45;12.20;1.00
84389;DHT22;74589;48.846;2.382;2024-01-27T11:30:31;12.40;1.00
84389;DHT22;74589;48.846;2.382;2024-01-27T11:33:01;12.60;1.00
84389;DHT22;74589;48.846;2.382;2024-01-27T11:35:28;12.40;1.00
84389;DHT22;74589;48.846;2.382;2024-01-27T11:37:54;12.50;1.00
84389;DHT22;74589;48.846;2.382;2024-01-27T11:40:20;12.70;1.00
84389;DHT22;74589;48.846;2.382;2024-01-27T11:43:00;12.80;1.00
84389;DHT22;74589;48.846;2.382;2024-01-27T11:45:26;12.80;1.00
84389;DHT22;74589;48.846;2.382;2024-01-27T11:47:55;12.80;1.00
84389;DHT22;74589;48.846;2.382;2024-01-27T11:50:21;12.80;1.00
84389;DHT22;74589;48.846;2.382;2024-01-27T11:52:47;13.30;1.00
84389;DHT22;74589;48.846;2.382;2024-01-27T11:55:13;13.20;1.00
84389;DHT22;74589;48.846;2.382;2024-01-27T11:57:41;13.10;1.00
84389;DHT22;74589;48.846;2.382;2024-01-27T12:00:07;13.00;1.00
84389;DHT22;74589;48.846;2.382;2024-01-27T12:02:35;13.00;1.00
84389;DHT22;74589;48.846;2.382;2024-01-27T12:05:01;13.00;1.00
84389;DHT22;74589;48.846;2.382;2024-01-27T12:07:27;13.10;1.00
84389;DHT22;74589;48.846;2.382;2024-01-27T12:09:53;13.10;1.00
84389;DHT22;74589;48.846;2.382;2024-01-27T12:12:20;13.20;1.00
84389;DHT22;74589;48.846;2.382;2024-01-27T12:14:47;13.00;1.00
84389;DHT22;74589;48.846;2.382;2024-01-27T12:17:13;12.90;1.00
84389;DHT22;74589;48.846;2.382;2024-01-27T12:19:45;12.70;1.00
84389;DHT22;74589;48.846;2.382;2024-01-27T12:22:27;12.60;1.00
84389;DHT22;74589;48.846;2.382;2024-01-27T12:24:54;12.60;1.00
84389;DHT22;74589;48.846;2.382;2024-01-27T12:27:22;12.60;1.00
84389;DHT22;74589;48.846;2.382;2024-01-27T12:29:49;12.80;1.00
84389;DHT22;74589;48.846;2.382;2024-01-27T12:32:18;12.90;1.00
84389;DHT22;74589;48.846;2.382;2024-01-27T12:34:44;13.00;1.00
84389;DHT22;74589;48.846;2.382;2024-01-27T12:37:11;13.00;1.00
84389;DHT22;74589;48.846;2.382;2024-01-27T12:39:43;13.10;1.00
84389;DHT22;74589;48.846;2.382;2024-01-27T12:42:12;13.10;1.00
84389;DHT22;74589;48.846;2.382;2024-01-27T12:44:39;13.10;1.00
84389;DHT22;74589;48.846;2.382;2024-01-27T12:47:05;13.50;1.00
84389;DHT22;74589;48.846;2.382;2024-01-27T12:49:31;13.40;1.00
84389;DHT22;74589;48.846;2.382;2024-01-27T12:51:57;13.30;1.00
84389;DHT22;74589;48.846;2.382;2024-01-27T12:54:22;13.10;1.00
84389;DHT22;74589;48.846;2.382;2024-01-27T12:56:48;12.60;1.00
84389;DHT22;74589;48.846;2.382;2024-01-27T12:59:14;12.30;1.00
84389;DHT22;74589;48.846;2.382;2024-01-27T13:01:41;12.10;1.00
84389;DHT22;74589;48.846;2.382;2024-01-27T13:04:06;12.30;1.00
84389;DHT22;74589;48.846;2.382;2024-01-27T13:06:32;12.40;1.00
84389;DHT22;74589;48.846;2.382;2024-01-27T13:08:58;12.10;1.00
84389;DHT22;74589;48.846;2.382;2024-01-27T13:11:24;12.30;1.00
84389;DHT22;74589;48.846;2.382;2024-01-27T13:13:50;12.40;1.00
84389;DHT22;74589;48.846;2.382;2024-01-27T13:16:16;12.40;1.00
84389;DHT22;74589;48.846;2.382;2024-01-27T13:18:41;12.60;1.00
84389;DHT22;74589;48.846;2.382;2024-01-27T13:21:08;12.80;1.00
84389;DHT22;74589;48.846;2.382;2024-01-27T13:23:34;12.90;1.00
84389;DHT22;74589;48.846;2.382;2024-01-27T13:26:00;12.90;1.00
84389;DHT22;74589;48.846;2.382;2024-01-27T13:28:26;12.80;1.00
84389;DHT22;74589;48.846;2.382;2024-01-27T13:30:51;12.80;1.00
84389;DHT22;74589;48.846;2.382;2024-01-27T13:33:17;12.90;1.00
84389;DHT22;74589;48.846;2.382;2024-01-27T13:35:43;13.10;1.00
84389;DHT22;74589;48.846;2.382;2024-01-27T13:38:12;12.90;1.00
84389;DHT22;74589;48.846;2.382;2024-01-27T13:40:38;12.80;1.00
84389;DHT22;74589;48.846;2.382;2024-01-27T13:43:04;12.70;1.00
84389;DHT22;74589;48.846;2.382;2024-01-27T13:45:30;12.70;1.00
84389;DHT22;74589;48.846;2.382;2024-01-27T13:47:57;12.60;1.00
84389;DHT22;74589;48.846;2.382;2024-01-27T13:50:23;12.40;1.00
84389;DHT22;74589;48.846;2.382;2024-01-27T13:52:51;12.30;1.00
84389;DHT22;74589;48.846;2.382;2024-01-27T13:55:16;12.30;1.00
84389;DHT22;74589;48.846;2.382;2024-01-27T13:57:43;12.60;1.00
84389;DHT22;74589;48.846;2.382;2024-01-27T14:00:09;12.40;1.00
84389;DHT22;74589;48.846;2.382;2024-01-27T14:02:35;12.40;1.00
84389;DHT22;74589;48.846;2.382;2024-01-27T14:05:01;12.40;1.00
84389;DHT22;74589;48.846;2.382;2024-01-27T14:07:27;12.50;1.00
84389;DHT22;74589;48.846;2.382;2024-01-27T14:09:52;12.30;1.00
84389;DHT22;74589;48.846;2.382;2024-01-27T14:12:18;12.10;1.00
84389;DHT22;74589;48.846;2.382;2024-01-27T14:14:44;12.10;1.00
84389;DHT22;74589;48.846;2.382;2024-01-27T14:17:09;12.20;1.00
84389;DHT22;74589;48.846;2.382;2024-01-27T14:19:35;12.50;1.00
84389;DHT22;74589;48.846;2.382;2024-01-27T14:22:02;12.50;1.00
84389;DHT22;74589;48.846;2.382;2024-01-27T14:24:28;12.40;1.00
84389;DHT22;74589;48.846;2.382;2024-01-27T14:26:54;12.40;1.00
84389;DHT22;74589;48.846;2.382;2024-01-27T14:29:20;12.20;1.00
84389;DHT22;74589;48.846;2.382;2024-01-27T14:31:45;12.20;1.00
84389;DHT22;74589;48.846;2.382;2024-01-27T14:34:11;12.10;1.00
84389;DHT22;74589;48.846;2.382;2024-01-27T14:36:39;12.10;1.00
84389;DHT22;74589;48.846;2.382;2024-01-27T14:39:05;12.10;1.00
84389;DHT22;74589;48.846;2.382;2024-01-27T14:41:36;12.00;1.00
84389;DHT22;74589;48.846;2.382;2024-01-27T14:44:02;12.10;1.00
84389;DHT22;74589;48.846;2.382;2024-01-27T14:46:29;12.00;1.00
84389;DHT22;74589;48.846;2.382;2024-01-27T14:48:55;12.00;1.00
84389;DHT22;74589;48.846;2.382;2024-01-27T14:51:20;12.00;1.00
84389;DHT22;74589;48.846;2.382;2024-01-27T14:53:48;12.00;1.00
84389;DHT22;74589;48.846;2.382;2024-01-27T14:56:14;12.00;1.00
84389;DHT22;74589;48.846;2.382;2024-01-27T14:58:40;12.20;1.00
84389;DHT22;74589;48.846;2.382;2024-01-27T15:01:06;12.00;1.00
84389;DHT22;74589;48.846;2.382;2024-01-27T15:03:31;12.10;1.00
84389;DHT22;74589;48.846;2.382;2024-01-27T15:05:59;12.10;1.00
84389;DHT22;74589;48.846;2.382;2024-01-27T15:08:26;12.20;1.00
84389;DHT22;74589;48.846;2.382;2024-01-27T15:10:52;12.10;1.00
84389;DHT22;74589;48.846;2.382;2024-01-27T15:13:17;11.80;1.00
84389;DHT22;74589;48.846;2.382;2024-01-27T15:15:46;11.90;1.00
84389;DHT22;74589;48.846;2.382;2024-01-27T15:18:12;12.00;1.00
84389;DHT22;74589;48.846;2.382;2024-01-27T15:20:38;12.00;1.00
84389;DHT22;74589;48.846;2.382;2024-01-27T15:23:03;11.90;1.00
84389;DHT22;74589;48.846;2.382;2024-01-27T15:25:29;12.00;1.00
84389;DHT22;74589;48.846;2.382;2024-01-27T15:27:56;12.00;1.00
84389;DHT22;74589;48.846;2.382;2024-01-27T15:30:22;11.90;1.00
84389;DHT22;74589;48.846;2.382;2024-01-27T15:32:48;11.80;1.00
84389;DHT22;74589;48.846;2.382;2024-01-27T15:35:14;11.80;1.00
84389;DHT22;74589;48.846;2.382;2024-01-27T15:37:40;11.60;1.00
84389;DHT22;74589;48.846;2.382;2024-01-27T15:40:06;11.80;1.00
84389;DHT22;74589;48.846;2.382;2024-01-27T15:42:32;11.90;1.00
84389;DHT22;74589;48.846;2.382;2024-01-27T15:44:58;12.20;1.00
84389;DHT22;74589;48.846;2.382;2024-01-27T15:47:24;12.00;1.00
84389;DHT22;74589;48.846;2.382;2024-01-27T15:49:51;12.00;1.00